Harrison, New York
Current Conditions -  °F | °C
As of 7:56 AM on Thursday 23 Oct 2014 (Local Time) from KHPN Reporting Station
Moderate Rain Moderate Rain  
Wind Chill: 41°   Ceiling: 800
Heat Index: 48°   Visibility: 2.5mi
Dew Point: 45°   Wind: 18mph
Humidity: 89%   Direction: 340°NNW
Pressure: 29.68"   Gusts: 26mph
Location:  40.97°N, 73.71°W
Report Text: KHPN 231156Z 34016G23KT 2 1/2SM RA BR BKN008 OVC042 09/07 A2968 RMK AO2 PK WND 34032/1115 SLP053 P0002 60012 70074 T00890072 10106 20089 53000
Loading
Personal Weather Stations






























Interactive Weather Map
Tropical Storm Tracking
New forecast layout! Learn more

10-Day Weather Forecast

Advertisements
Track Severe Weather on mobile